createdAt,value
2023-04-29T00:00:13.667Z,1012.82
2023-04-29T00:01:13.975Z,1012.85
2023-04-29T00:02:13.498Z,1012.81
2023-04-29T00:03:13.572Z,1012.79
2023-04-29T00:04:13.740Z,1012.78
2023-04-29T00:05:13.975Z,1012.81
2023-04-29T00:06:13.281Z,1012.78
2023-04-29T00:07:13.160Z,1012.79
2023-04-29T00:08:13.254Z,1012.85
2023-04-29T00:09:13.193Z,1012.85
2023-04-29T00:10:13.262Z,1012.80
2023-04-29T00:11:13.170Z,1012.78
2023-04-29T00:12:13.378Z,1012.82
2023-04-29T00:13:13.388Z,1012.79
2023-04-29T00:14:13.607Z,1012.80
2023-04-29T00:15:13.515Z,1012.75
2023-04-29T00:16:13.594Z,1012.75
2023-04-29T00:17:13.743Z,1012.78
2023-04-29T00:18:14.012Z,1012.80
2023-04-29T00:19:13.023Z,1012.77
2023-04-29T00:20:12.937Z,1012.84
2023-04-29T00:21:12.974Z,1012.83
2023-04-29T00:22:12.823Z,1012.84
2023-04-29T00:23:13.728Z,1012.84
2023-04-29T00:24:13.613Z,1012.82
2023-04-29T00:25:13.573Z,1012.85
2023-04-29T00:26:13.537Z,1012.86
2023-04-29T00:27:13.871Z,1012.98
2023-04-29T00:28:13.825Z,1013.04
2023-04-29T00:29:13.806Z,1012.91
2023-04-29T00:30:13.789Z,1012.95
2023-04-29T00:31:13.813Z,1012.93
2023-04-29T00:32:14.043Z,1012.92
2023-04-29T00:33:12.960Z,1012.94
2023-04-29T00:34:13.318Z,1012.98
2023-04-29T00:35:13.443Z,1013.01
2023-04-29T00:36:13.740Z,1012.98
2023-04-29T00:37:13.641Z,1012.98
2023-04-29T00:38:13.627Z,1013.05
2023-04-29T00:39:15.154Z,1013.05
2023-04-29T00:40:13.441Z,1013.06
2023-04-29T00:41:13.408Z,1013.03
2023-04-29T00:42:13.482Z,1013.01
2023-04-29T00:43:13.550Z,1013.05
2023-04-29T00:44:14.118Z,1013.05
2023-04-29T00:45:13.633Z,1013.09
2023-04-29T00:46:13.661Z,1013.09
2023-04-29T00:47:14.150Z,1013.09
2023-04-29T00:48:13.473Z,1013.06
2023-04-29T00:49:13.666Z,1013.13
2023-04-29T00:50:13.574Z,1013.09
2023-04-29T00:51:13.621Z,1013.21
2023-04-29T00:52:13.517Z,1013.19
2023-04-29T00:53:13.390Z,1013.16
2023-04-29T00:54:13.225Z,1013.18
2023-04-29T00:55:13.224Z,1013.19
2023-04-29T00:56:13.401Z,1013.23
2023-04-29T00:57:13.562Z,1013.20
2023-04-29T00:58:13.583Z,1013.22
2023-04-29T00:59:13.584Z,1013.25
2023-04-29T01:00:13.513Z,1013.24
2023-04-29T01:01:13.448Z,1013.30
2023-04-29T01:02:13.272Z,1013.30
2023-04-29T01:03:13.324Z,1013.30
2023-04-29T01:04:13.882Z,1013.28
2023-04-29T01:05:13.123Z,1013.32
2023-04-29T01:06:13.058Z,1013.33
2023-04-29T01:07:12.988Z,1013.33
2023-04-29T01:08:12.911Z,1013.37
2023-04-29T01:09:13.186Z,1013.37
2023-04-29T01:10:14.537Z,1013.39
2023-04-29T01:11:14.739Z,1013.39
2023-04-29T01:12:13.634Z,1013.45
2023-04-29T01:13:13.454Z,1013.40
2023-04-29T01:14:13.487Z,1013.37
2023-04-29T01:15:13.555Z,1013.37
2023-04-29T01:16:13.494Z,1013.38
2023-04-29T01:17:13.607Z,1013.41
2023-04-29T01:18:13.520Z,1013.40
2023-04-29T01:19:13.354Z,1013.44
2023-04-29T01:20:13.217Z,1013.42
2023-04-29T01:21:13.130Z,1013.45
2023-04-29T01:22:12.981Z,1013.44
2023-04-29T01:23:13.005Z,1013.47
2023-04-29T01:24:13.239Z,1013.45
2023-04-29T01:25:13.101Z,1013.48
2023-04-29T01:26:13.107Z,1013.50
2023-04-29T01:27:13.308Z,1013.50
2023-04-29T01:28:13.202Z,1013.53
2023-04-29T01:29:13.081Z,1013.52
2023-04-29T01:30:13.203Z,1013.52
2023-04-29T01:31:13.426Z,1013.55
2023-04-29T01:32:13.666Z,1013.52
2023-04-29T01:33:13.769Z,1013.54
2023-04-29T01:34:13.742Z,1013.53
2023-04-29T01:35:13.658Z,1013.58
2023-04-29T01:36:13.502Z,1013.58
2023-04-29T01:37:18.548Z,1013.54
2023-04-29T01:38:13.434Z,1013.56
2023-04-29T01:39:13.316Z,1013.57
2023-04-29T01:40:13.408Z,1013.55
2023-04-29T01:41:18.500Z,1013.60
2023-04-29T01:42:14.393Z,1013.56
2023-04-29T01:43:13.450Z,1013.60
2023-04-29T01:44:13.595Z,1013.60
2023-04-29T01:45:13.676Z,1013.58
2023-04-29T01:46:23.934Z,1013.62
2023-04-29T01:47:12.872Z,1013.62
2023-04-29T01:48:13.859Z,1013.61
2023-04-29T01:49:13.936Z,1013.62
2023-04-29T01:50:12.744Z,1013.59
2023-04-29T01:51:13.670Z,1013.57
2023-04-29T01:52:13.498Z,1013.58
2023-04-29T01:53:13.433Z,1013.63
2023-04-29T01:54:13.248Z,1013.58
2023-04-29T01:55:13.186Z,1013.59
2023-04-29T01:56:13.669Z,1013.65
2023-04-29T01:57:13.604Z,1013.62
2023-04-29T01:58:13.456Z,1013.64
2023-04-29T01:59:13.512Z,1013.64
2023-04-29T02:00:13.459Z,1013.66
2023-04-29T02:01:13.448Z,1013.66
2023-04-29T02:02:13.696Z,1013.64
2023-04-29T02:03:13.689Z,1013.65
2023-04-29T02:04:13.978Z,1013.70
2023-04-29T02:05:13.108Z,1013.65
2023-04-29T02:06:13.250Z,1013.65
2023-04-29T02:07:13.225Z,1013.71
2023-04-29T02:08:13.367Z,1013.65
2023-04-29T02:09:13.476Z,1013.67
2023-04-29T02:10:13.389Z,1013.70
2023-04-29T02:11:13.854Z,1013.70
2023-04-29T02:12:14.060Z,1013.73
2023-04-29T02:13:13.081Z,1013.75
2023-04-29T02:14:12.915Z,1013.75
2023-04-29T02:15:12.887Z,1013.78
2023-04-29T02:16:14.328Z,1013.80
2023-04-29T02:17:13.610Z,1013.80
2023-04-29T02:18:13.588Z,1013.80
2023-04-29T02:19:13.517Z,1013.82
2023-04-29T02:20:13.502Z,1013.83
2023-04-29T02:21:13.515Z,1013.86
2023-04-29T02:22:13.384Z,1013.92
2023-04-29T02:23:13.506Z,1013.81
2023-04-29T02:24:14.013Z,1013.87
2023-04-29T02:25:13.119Z,1013.90
2023-04-29T02:26:13.379Z,1013.95
2023-04-29T02:27:13.631Z,1013.95
2023-04-29T02:28:14.106Z,1013.94
2023-04-29T02:29:13.052Z,1013.96
2023-04-29T02:30:12.906Z,1013.94
2023-04-29T02:31:12.797Z,1014.01
2023-04-29T02:32:13.783Z,1013.96
2023-04-29T02:33:14.355Z,1014.00
2023-04-29T02:34:13.189Z,1014.00
2023-04-29T02:35:13.352Z,1014.03
2023-04-29T02:36:13.334Z,1013.99
2023-04-29T02:37:13.280Z,1014.03
2023-04-29T02:38:13.540Z,1014.03
2023-04-29T02:39:13.903Z,1014.08
2023-04-29T02:40:12.939Z,1014.17
2023-04-29T02:41:12.891Z,1014.06
2023-04-29T02:42:14.112Z,1014.12
2023-04-29T02:43:13.345Z,1014.10
2023-04-29T02:44:13.619Z,1014.13
2023-04-29T02:45:13.523Z,1014.13
2023-04-29T02:46:13.472Z,1014.18
2023-04-29T02:47:13.552Z,1014.15
2023-04-29T02:48:13.473Z,1014.16
2023-04-29T02:49:13.883Z,1014.18
2023-04-29T02:50:13.120Z,1014.18
2023-04-29T02:51:13.208Z,1014.19
2023-04-29T02:52:13.144Z,1014.19
2023-04-29T02:53:13.108Z,1014.23
2023-04-29T02:54:13.055Z,1014.22
2023-04-29T02:55:13.118Z,1014.24
2023-04-29T02:56:13.551Z,1014.24
2023-04-29T02:57:13.752Z,1014.24
2023-04-29T02:58:13.769Z,1014.30
2023-04-29T02:59:12.960Z,1014.29
2023-04-29T03:00:12.893Z,1014.30
2023-04-29T03:01:13.893Z,1014.30
2023-04-29T03:02:12.810Z,1014.31
2023-04-29T03:03:13.274Z,1014.28
2023-04-29T03:04:13.676Z,1014.34
2023-04-29T03:05:18.714Z,1014.37
2023-04-29T03:06:13.820Z,1014.31
2023-04-29T03:07:13.810Z,1014.33
2023-04-29T03:08:13.805Z,1014.34
2023-04-29T03:09:13.803Z,1014.33
2023-04-29T03:10:13.721Z,1014.36
2023-04-29T03:11:13.656Z,1014.37
2023-04-29T03:12:14.099Z,1014.42
2023-04-29T03:13:13.151Z,1014.39
2023-04-29T03:14:13.093Z,1014.44
2023-04-29T03:15:13.016Z,1014.42
2023-04-29T03:16:13.603Z,1014.37
2023-04-29T03:17:13.894Z,1014.34
2023-04-29T03:18:14.058Z,1014.39
2023-04-29T03:19:13.314Z,1014.39
2023-04-29T03:20:14.505Z,1014.39
2023-04-29T03:21:13.399Z,1014.44
2023-04-29T03:22:13.564Z,1014.44
2023-04-29T03:23:13.621Z,1014.44
2023-04-29T03:24:13.655Z,1014.46
2023-04-29T03:25:14.313Z,1014.42
2023-04-29T03:26:13.225Z,1014.43
2023-04-29T03:27:13.164Z,1014.41
2023-04-29T03:28:13.271Z,1014.45
2023-04-29T03:29:13.942Z,1014.42
2023-04-29T03:30:12.857Z,1014.39
2023-04-29T03:31:14.059Z,1014.40
2023-04-29T03:32:13.222Z,1014.43
2023-04-29T03:33:13.242Z,1014.45
2023-04-29T03:34:13.115Z,1014.45
2023-04-29T03:35:15.521Z,1014.45
2023-04-29T03:36:13.342Z,1014.45
2023-04-29T03:37:13.360Z,1014.48
2023-04-29T03:38:13.280Z,1014.51
2023-04-29T03:39:13.387Z,1014.50
2023-04-29T03:40:13.334Z,1014.52
2023-04-29T03:41:13.327Z,1014.50
2023-04-29T03:42:13.205Z,1014.52
2023-04-29T03:43:13.132Z,1014.50
2023-04-29T03:44:13.089Z,1014.54
2023-04-29T03:45:12.983Z,1014.56
2023-04-29T03:46:12.919Z,1014.57
2023-04-29T03:47:12.900Z,1014.59
2023-04-29T03:48:12.855Z,1014.61
2023-04-29T03:49:23.786Z,1014.56
2023-04-29T03:50:13.694Z,1014.59
2023-04-29T03:51:13.525Z,1014.58
2023-04-29T03:52:13.394Z,1014.64
2023-04-29T03:53:13.593Z,1014.60
2023-04-29T03:54:13.570Z,1014.64
2023-04-29T03:55:13.573Z,1014.56
2023-04-29T03:56:13.465Z,1014.65
2023-04-29T03:57:13.341Z,1014.61
2023-04-29T03:58:14.012Z,1014.65
2023-04-29T03:59:13.024Z,1014.60
2023-04-29T04:00:12.915Z,1014.64
2023-04-29T04:01:12.787Z,1014.63
2023-04-29T04:02:13.814Z,1014.66
2023-04-29T04:03:14.217Z,1014.65
2023-04-29T04:04:13.570Z,1014.70
2023-04-29T04:05:13.796Z,1014.68
2023-04-29T04:06:13.389Z,1014.70
2023-04-29T04:07:13.296Z,1014.73
2023-04-29T04:08:13.332Z,1014.71
2023-04-29T04:09:13.204Z,1014.71
2023-04-29T04:10:13.208Z,1014.68
2023-04-29T04:11:13.385Z,1014.69
2023-04-29T04:12:13.530Z,1014.74
2023-04-29T04:13:13.841Z,1014.75
2023-04-29T04:14:13.774Z,1014.80
2023-04-29T04:15:13.607Z,1014.80
2023-04-29T04:16:13.497Z,1014.84
2023-04-29T04:17:13.857Z,1014.86
2023-04-29T04:18:13.888Z,1014.84
2023-04-29T04:19:14.332Z,1014.88
2023-04-29T04:20:13.806Z,1014.93
2023-04-29T04:21:13.612Z,1014.89
2023-04-29T04:22:13.476Z,1014.93
2023-04-29T04:23:14.145Z,1014.91
2023-04-29T04:24:13.174Z,1014.91
2023-04-29T04:25:13.388Z,1014.92
2023-04-29T04:26:13.320Z,1014.93
2023-04-29T04:27:13.258Z,1014.99
2023-04-29T04:28:13.148Z,1014.98
2023-04-29T04:29:13.178Z,1014.99
2023-04-29T04:30:13.221Z,1015.05
2023-04-29T04:31:13.624Z,1015.03
2023-04-29T04:32:13.552Z,1015.05
2023-04-29T04:33:13.458Z,1015.04
2023-04-29T04:34:13.424Z,1015.02
2023-04-29T04:35:13.239Z,1015.03
2023-04-29T04:36:13.654Z,1015.02
2023-04-29T04:37:13.667Z,1015.05
2023-04-29T04:38:13.758Z,1015.02
2023-04-29T04:39:13.771Z,1015.08
2023-04-29T04:40:13.839Z,1015.08
2023-04-29T04:41:14.042Z,1015.07
2023-04-29T04:42:13.054Z,1015.10
2023-04-29T04:43:12.952Z,1015.13
2023-04-29T04:44:12.832Z,1015.13
2023-04-29T04:45:13.735Z,1015.09
2023-04-29T04:46:13.860Z,1015.13
2023-04-29T04:47:12.829Z,1015.17
2023-04-29T04:48:13.738Z,1015.16
2023-04-29T04:49:13.888Z,1015.21
2023-04-29T04:50:15.154Z,1015.22
2023-04-29T04:51:13.319Z,1015.15
2023-04-29T04:52:13.431Z,1015.21
2023-04-29T04:53:13.381Z,1015.18
2023-04-29T04:54:13.308Z,1015.26
2023-04-29T04:55:15.189Z,1015.24
2023-04-29T04:56:13.453Z,1015.25
2023-04-29T04:57:45.603Z,1015.28
2023-04-29T04:58:13.957Z,1015.28
2023-04-29T04:59:13.048Z,1015.27
2023-04-29T05:00:13.101Z,1015.28
2023-04-29T05:01:12.987Z,1015.32
2023-04-29T05:02:13.309Z,1015.34
2023-04-29T05:03:13.671Z,1015.33
2023-04-29T05:04:13.910Z,1015.35
2023-04-29T05:05:12.898Z,1015.38
2023-04-29T05:06:13.221Z,1015.36
2023-04-29T05:07:13.209Z,1015.40
2023-04-29T05:08:13.254Z,1015.36
2023-04-29T05:09:13.447Z,1015.41
2023-04-29T05:10:13.519Z,1015.38
2023-04-29T05:11:13.469Z,1015.44
2023-04-29T05:12:13.514Z,1015.42
2023-04-29T05:13:13.506Z,1015.43
2023-04-29T05:14:13.313Z,1015.45
2023-04-29T05:15:13.191Z,1015.50
2023-04-29T05:16:13.388Z,1015.45
2023-04-29T05:17:13.327Z,1015.48
2023-04-29T05:18:13.593Z,1015.42
2023-04-29T05:19:13.477Z,1015.50
2023-04-29T05:20:13.633Z,1015.50
2023-04-29T05:21:15.997Z,1015.45
2023-04-29T05:22:13.089Z,1015.54
2023-04-29T05:23:13.497Z,1015.51
2023-04-29T05:24:13.906Z,1015.51
2023-04-29T05:25:12.805Z,1015.49
2023-04-29T05:26:36.878Z,1015.49
2023-04-29T05:27:14.188Z,1015.49
2023-04-29T05:28:13.511Z,1015.53
2023-04-29T05:29:13.477Z,1015.53
2023-04-29T05:31:16.369Z,1015.52
2023-04-29T05:32:13.694Z,1015.55
2023-04-29T05:33:13.737Z,1015.57
2023-04-29T05:34:14.066Z,1015.56
2023-04-29T05:35:13.071Z,1015.62
2023-04-29T05:36:13.105Z,1015.62
2023-04-29T05:37:13.085Z,1015.62
2023-04-29T05:38:13.825Z,1015.62
2023-04-29T05:39:14.194Z,1015.64
2023-04-29T05:40:13.251Z,1015.68
2023-04-29T05:41:13.309Z,1015.62
2023-04-29T05:42:13.424Z,1015.70
2023-04-29T05:43:13.486Z,1015.69
2023-04-29T05:44:13.565Z,1015.70
2023-04-29T05:45:13.712Z,1015.69
2023-04-29T05:46:13.723Z,1015.72
2023-04-29T05:47:13.904Z,1015.74
2023-04-29T05:48:14.371Z,1015.79
2023-04-29T05:49:13.332Z,1015.74
2023-04-29T05:50:13.308Z,1015.78
2023-04-29T05:51:13.546Z,1015.81
2023-04-29T05:52:13.718Z,1015.81
2023-04-29T05:53:13.901Z,1015.83
2023-04-29T05:54:12.965Z,1015.89
2023-04-29T05:55:12.953Z,1015.89
2023-04-29T05:56:13.222Z,1015.91
2023-04-29T05:57:13.626Z,1015.92
2023-04-29T05:58:13.649Z,1015.91
2023-04-29T05:59:13.815Z,1015.92
2023-04-29T06:00:13.995Z,1015.94
2023-04-29T06:01:12.825Z,1015.95
2023-04-29T06:02:13.932Z,1016.02
2023-04-29T06:03:13.424Z,1015.99
2023-04-29T06:04:13.856Z,1016.00
2023-04-29T06:05:13.483Z,1016.04
2023-04-29T06:06:14.094Z,1016.01
2023-04-29T06:07:13.417Z,1016.02
2023-04-29T06:08:13.393Z,1016.04
2023-04-29T06:09:26.384Z,1016.06
2023-04-29T06:10:12.920Z,1016.06
2023-04-29T06:11:13.086Z,1016.10
2023-04-29T06:12:13.131Z,1016.12
2023-04-29T06:13:13.439Z,1016.10
2023-04-29T06:14:13.457Z,1016.12
2023-04-29T06:15:13.553Z,1016.11
2023-04-29T06:16:13.613Z,1016.11
2023-04-29T06:17:13.659Z,1016.16
2023-04-29T06:18:13.615Z,1016.15
2023-04-29T06:19:14.056Z,1016.16
2023-04-29T06:20:13.167Z,1016.21
2023-04-29T06:21:13.320Z,1016.19
2023-04-29T06:22:13.578Z,1016.19
2023-04-29T06:23:13.534Z,1016.22
2023-04-29T06:24:13.889Z,1016.25
2023-04-29T06:25:14.146Z,1016.25
2023-04-29T06:26:14.644Z,1016.30
2023-04-29T06:27:13.634Z,1016.32
2023-04-29T06:28:13.499Z,1016.32
2023-04-29T06:29:13.520Z,1016.31
2023-04-29T06:30:13.701Z,1016.32
2023-04-29T06:31:13.628Z,1016.30
2023-04-29T06:32:13.987Z,1016.33
2023-04-29T06:33:13.261Z,1016.32
2023-04-29T06:34:13.339Z,1016.33
2023-04-29T06:35:13.567Z,1016.38
2023-04-29T06:36:13.855Z,1016.37
2023-04-29T06:37:13.777Z,1016.39
2023-04-29T06:38:13.877Z,1016.40
2023-04-29T06:39:13.858Z,1016.40
2023-04-29T06:40:13.840Z,1016.43
2023-04-29T06:41:13.869Z,1016.43
2023-04-29T06:42:13.814Z,1016.41
2023-04-29T06:43:13.647Z,1016.45
2023-04-29T06:44:13.704Z,1016.49
2023-04-29T06:45:13.598Z,1016.50
2023-04-29T06:46:13.759Z,1016.49
2023-04-29T06:47:13.901Z,1016.57
2023-04-29T06:48:12.924Z,1016.60
2023-04-29T06:49:18.146Z,1016.60
2023-04-29T06:50:13.083Z,1016.61
2023-04-29T06:51:13.195Z,1016.62
2023-04-29T06:52:13.166Z,1016.60
2023-04-29T06:53:13.045Z,1016.62
2023-04-29T06:54:13.049Z,1016.64
2023-04-29T06:55:13.116Z,1016.64
2023-04-29T06:56:14.578Z,1016.64
2023-04-29T06:57:13.334Z,1016.64
2023-04-29T06:58:13.570Z,1016.70
2023-04-29T06:59:13.463Z,1016.64
2023-04-29T07:00:13.694Z,1016.68
2023-04-29T07:01:13.726Z,1016.70
2023-04-29T07:02:13.806Z,1016.70
2023-04-29T07:03:13.919Z,1016.75
2023-04-29T07:04:13.630Z,1016.77
2023-04-29T07:05:13.709Z,1016.76
2023-04-29T07:06:13.684Z,1016.77
2023-04-29T07:07:13.670Z,1016.78
2023-04-29T07:08:13.976Z,1016.80
2023-04-29T07:09:13.088Z,1016.84
2023-04-29T07:10:13.258Z,1016.86
2023-04-29T07:11:13.352Z,1016.90
2023-04-29T07:12:13.402Z,1016.84
2023-04-29T07:13:13.488Z,1016.90
2023-04-29T07:14:13.591Z,1016.88
2023-04-29T07:15:13.795Z,1016.93
2023-04-29T07:16:14.084Z,1016.94
2023-04-29T07:17:14.423Z,1017.01
2023-04-29T07:18:13.301Z,1016.98
2023-04-29T07:19:13.354Z,1017.03
2023-04-29T07:20:13.349Z,1017.05
2023-04-29T07:21:13.712Z,1017.04
2023-04-29T07:22:13.725Z,1017.05
2023-04-29T07:23:13.854Z,1017.06
2023-04-29T07:24:13.719Z,1017.10
2023-04-29T07:25:13.820Z,1017.12
2023-04-29T07:26:13.721Z,1017.13
2023-04-29T07:27:13.714Z,1017.13
2023-04-29T07:28:13.586Z,1017.16
2023-04-29T07:29:13.599Z,1017.19
2023-04-29T07:31:13.450Z,1017.17
2023-04-29T07:32:13.814Z,1017.25
2023-04-29T07:33:13.654Z,1017.28
2023-04-29T07:34:13.563Z,1017.25
2023-04-29T07:35:13.758Z,1017.28
2023-04-29T07:36:14.079Z,1017.30
2023-04-29T07:37:13.123Z,1017.30
2023-04-29T07:38:13.007Z,1017.28
2023-04-29T07:39:12.986Z,1017.33
2023-04-29T07:40:12.878Z,1017.34
2023-04-29T07:41:12.909Z,1017.36
2023-04-29T07:42:13.033Z,1017.37
2023-04-29T07:43:13.211Z,1017.41
2023-04-29T07:44:13.201Z,1017.41
2023-04-29T07:45:13.111Z,1017.40
2023-04-29T07:46:13.401Z,1017.43
2023-04-29T07:47:13.656Z,1017.45
2023-04-29T07:48:14.100Z,1017.47
2023-04-29T07:49:12.979Z,1017.50
2023-04-29T07:50:12.975Z,1017.50
2023-04-29T07:51:13.208Z,1017.51
2023-04-29T07:52:13.250Z,1017.52
2023-04-29T07:53:13.184Z,1017.54
2023-04-29T07:54:13.246Z,1017.56
2023-04-29T07:55:13.154Z,1017.57
2023-04-29T07:56:13.472Z,1017.60
2023-04-29T07:57:13.549Z,1017.64
2023-04-29T07:58:13.678Z,1017.62
2023-04-29T07:59:13.839Z,1017.67
2023-04-29T08:00:13.699Z,1017.68
2023-04-29T08:01:13.838Z,1017.66
2023-04-29T08:02:13.972Z,1017.71
2023-04-29T08:03:13.377Z,1017.70
2023-04-29T08:04:14.410Z,1017.71
2023-04-29T08:05:13.878Z,1017.75
2023-04-29T08:06:13.323Z,1017.74
2023-04-29T08:07:13.690Z,1017.78
2023-04-29T08:08:13.715Z,1017.74
2023-04-29T08:09:13.635Z,1017.81
2023-04-29T08:10:13.505Z,1017.81
2023-04-29T08:11:13.645Z,1017.78
2023-04-29T08:12:13.957Z,1017.80
2023-04-29T08:13:13.251Z,1017.81
2023-04-29T08:14:13.285Z,1017.82
2023-04-29T08:15:14.745Z,1017.82
2023-04-29T08:16:14.173Z,1017.85
2023-04-29T08:17:13.461Z,1017.84
2023-04-29T08:18:13.407Z,1017.84
2023-04-29T08:19:13.313Z,1017.87
2023-04-29T08:20:13.427Z,1017.86
2023-04-29T08:21:13.580Z,1017.87
2023-04-29T08:22:13.726Z,1017.85
2023-04-29T08:23:13.823Z,1017.89
2023-04-29T08:24:14.014Z,1017.91
2023-04-29T08:25:12.859Z,1017.84
2023-04-29T08:26:13.973Z,1017.90
2023-04-29T08:27:13.186Z,1017.92
2023-04-29T08:28:13.315Z,1017.88
2023-04-29T08:29:13.411Z,1017.89
2023-04-29T08:30:13.475Z,1017.92
2023-04-29T08:31:13.363Z,1017.93
2023-04-29T08:32:13.401Z,1017.95
2023-04-29T08:33:13.517Z,1017.94
2023-04-29T08:34:13.624Z,1017.93
2023-04-29T08:35:13.773Z,1017.96
2023-04-29T08:36:13.785Z,1017.98
2023-04-29T08:37:14.438Z,1018.00
2023-04-29T08:38:13.136Z,1018.00
2023-04-29T08:39:13.179Z,1018.02
2023-04-29T08:40:14.204Z,1018.07
2023-04-29T08:41:13.226Z,1018.05
2023-04-29T08:42:18.288Z,1018.10
2023-04-29T08:43:13.442Z,1018.11
2023-04-29T08:44:13.491Z,1018.10
2023-04-29T08:45:13.547Z,1018.15
2023-04-29T08:46:13.625Z,1018.14
2023-04-29T08:47:13.916Z,1018.13
2023-04-29T08:48:13.399Z,1018.13
2023-04-29T08:49:13.540Z,1018.11
2023-04-29T08:50:13.720Z,1018.11
2023-04-29T08:51:13.532Z,1018.17
2023-04-29T08:52:14.609Z,1018.19
2023-04-29T08:53:14.000Z,1018.19
2023-04-29T08:54:13.009Z,1018.20
2023-04-29T08:55:13.060Z,1018.21
2023-04-29T08:56:12.932Z,1018.19
2023-04-29T08:57:12.749Z,1018.24
2023-04-29T08:58:13.756Z,1018.30
2023-04-29T08:59:13.849Z,1018.28
2023-04-29T09:00:14.219Z,1018.26
2023-04-29T09:01:13.256Z,1018.32
2023-04-29T09:02:13.519Z,1018.30
2023-04-29T09:03:13.981Z,1018.30
2023-04-29T09:04:13.202Z,1018.32
2023-04-29T09:05:13.357Z,1018.30
2023-04-29T09:06:13.226Z,1018.28
2023-04-29T09:07:13.095Z,1018.31
2023-04-29T09:08:13.078Z,1018.26
2023-04-29T09:09:15.510Z,1018.30
2023-04-29T09:10:13.710Z,1018.29
2023-04-29T09:11:13.574Z,1018.31
2023-04-29T09:12:13.656Z,1018.32
2023-04-29T09:13:13.788Z,1018.32
2023-04-29T09:14:13.774Z,1018.34
2023-04-29T09:15:14.000Z,1018.36
2023-04-29T09:16:13.344Z,1018.36
2023-04-29T09:17:13.261Z,1018.36
2023-04-29T09:18:13.188Z,1018.42
2023-04-29T09:19:13.202Z,1018.40
2023-04-29T09:20:13.672Z,1018.43
2023-04-29T09:21:13.625Z,1018.42
2023-04-29T09:22:13.611Z,1018.45
2023-04-29T09:23:13.853Z,1018.42
2023-04-29T09:24:15.241Z,1018.40
2023-04-29T09:25:13.463Z,1018.45
2023-04-29T09:26:15.538Z,1018.45
2023-04-29T09:27:13.655Z,1018.47
2023-04-29T09:28:13.859Z,1018.46
2023-04-29T09:29:14.022Z,1018.46
2023-04-29T09:30:13.272Z,1018.46
2023-04-29T09:31:13.383Z,1018.52
2023-04-29T09:32:13.510Z,1018.52
2023-04-29T09:33:13.402Z,1018.53
2023-04-29T09:34:13.539Z,1018.55
2023-04-29T09:35:13.582Z,1018.59
2023-04-29T09:36:13.576Z,1018.59
2023-04-29T09:37:13.768Z,1018.59
2023-04-29T09:38:13.880Z,1018.60
2023-04-29T09:39:13.932Z,1018.63
2023-04-29T09:40:13.020Z,1018.64
2023-04-29T09:41:13.403Z,1018.64
2023-04-29T09:42:13.753Z,1018.64
2023-04-29T09:43:13.126Z,1018.61
2023-04-29T09:44:13.251Z,1018.61
2023-04-29T09:45:13.452Z,1018.68
2023-04-29T09:46:14.004Z,1018.67
2023-04-29T09:47:13.076Z,1018.68
2023-04-29T09:48:13.202Z,1018.67
2023-04-29T09:49:18.406Z,1018.68
2023-04-29T09:50:13.451Z,1018.71
2023-04-29T09:51:16.090Z,1018.69
2023-04-29T09:52:13.212Z,1018.70
2023-04-29T09:53:13.229Z,1018.75
2023-04-29T09:54:13.320Z,1018.70
2023-04-29T09:55:13.141Z,1018.71
2023-04-29T09:56:13.792Z,1018.71
2023-04-29T09:57:13.791Z,1018.70
2023-04-29T09:58:14.043Z,1018.71
2023-04-29T09:59:13.053Z,1018.71
2023-04-29T10:00:12.901Z,1018.71
2023-04-29T10:01:12.938Z,1018.71
2023-04-29T10:02:13.035Z,1018.66
2023-04-29T10:03:13.470Z,1018.70
2023-04-29T10:04:13.601Z,1018.70
2023-04-29T10:05:14.025Z,1018.68
2023-04-29T10:06:13.470Z,1018.69
2023-04-29T10:07:13.704Z,1018.71
2023-04-29T10:08:13.788Z,1018.70
2023-04-29T10:09:14.332Z,1018.74
2023-04-29T10:10:13.449Z,1018.69
2023-04-29T10:11:14.757Z,1018.75
2023-04-29T10:12:13.829Z,1018.73
2023-04-29T10:13:14.201Z,1018.73
2023-04-29T10:14:13.325Z,1018.74
2023-04-29T10:15:13.361Z,1018.75
2023-04-29T10:16:15.474Z,1018.84
2023-04-29T10:17:13.537Z,1018.77
2023-04-29T10:18:13.863Z,1018.80
2023-04-29T10:19:13.945Z,1018.80
2023-04-29T10:20:12.962Z,1018.80
2023-04-29T10:21:13.465Z,1018.86
2023-04-29T10:22:13.576Z,1018.84
2023-04-29T10:23:13.564Z,1018.85
2023-04-29T10:24:13.404Z,1018.84
2023-04-29T10:25:13.385Z,1018.86
2023-04-29T10:26:13.405Z,1018.83
2023-04-29T10:27:13.469Z,1018.83
2023-04-29T10:28:13.440Z,1018.84
2023-04-29T10:29:13.734Z,1018.81
2023-04-29T10:30:13.655Z,1018.82
2023-04-29T10:31:14.212Z,1018.82
2023-04-29T10:32:13.684Z,1018.83
2023-04-29T10:33:14.212Z,1018.80
2023-04-29T10:34:13.581Z,1018.79
2023-04-29T10:35:13.970Z,1018.79
2023-04-29T10:36:13.379Z,1018.85
2023-04-29T10:37:13.688Z,1018.84
2023-04-29T10:38:13.894Z,1018.85
2023-04-29T10:39:12.925Z,1018.82
2023-04-29T10:40:12.988Z,1018.82
2023-04-29T10:41:13.039Z,1018.84
2023-04-29T10:42:13.328Z,1018.82
2023-04-29T10:43:13.364Z,1018.82
2023-04-29T10:44:13.762Z,1018.87
2023-04-29T10:45:13.735Z,1018.91
2023-04-29T10:46:13.839Z,1018.90
2023-04-29T10:47:13.896Z,1018.89
2023-04-29T10:48:13.023Z,1018.93
2023-04-29T10:49:18.216Z,1018.91
2023-04-29T10:50:13.263Z,1018.93
2023-04-29T10:51:13.133Z,1018.89
2023-04-29T10:52:13.073Z,1018.91
2023-04-29T10:53:13.004Z,1018.92
2023-04-29T10:54:13.412Z,1018.94
2023-04-29T10:55:13.438Z,1018.92
2023-04-29T10:56:14.344Z,1018.96
2023-04-29T10:57:13.290Z,1018.94
2023-04-29T10:58:13.151Z,1018.97
2023-04-29T10:59:13.368Z,1018.98
2023-04-29T11:00:14.686Z,1018.98
2023-04-29T11:01:13.898Z,1019.01
2023-04-29T11:02:13.079Z,1019.02
2023-04-29T11:03:13.083Z,1018.98
2023-04-29T11:04:13.179Z,1018.99
2023-04-29T11:05:13.639Z,1019.00
2023-04-29T11:06:13.612Z,1019.04
2023-04-29T11:07:13.823Z,1019.00
2023-04-29T11:08:13.728Z,1019.03
2023-04-29T11:09:13.641Z,1019.03
2023-04-29T11:10:13.717Z,1019.00
2023-04-29T11:11:13.746Z,1019.02
2023-04-29T11:12:13.733Z,1018.98
2023-04-29T11:13:13.580Z,1018.99
2023-04-29T11:14:13.612Z,1019.03
2023-04-29T11:15:13.846Z,1019.04
2023-04-29T11:16:14.071Z,1019.08
2023-04-29T11:17:13.178Z,1019.03
2023-04-29T11:18:13.365Z,1019.01
2023-04-29T11:19:13.553Z,1019.03
2023-04-29T11:20:13.666Z,1019.04
2023-04-29T11:21:14.088Z,1019.03
2023-04-29T11:22:13.105Z,1019.04
2023-04-29T11:23:13.135Z,1019.02
2023-04-29T11:24:12.975Z,1018.99
2023-04-29T11:25:12.917Z,1019.03
2023-04-29T11:26:12.848Z,1019.03
2023-04-29T11:27:14.071Z,1019.01
2023-04-29T11:28:13.530Z,1019.02
2023-04-29T11:29:13.645Z,1019.05
2023-04-29T11:30:13.713Z,1019.03
2023-04-29T11:31:14.073Z,1019.04
2023-04-29T11:32:13.451Z,1019.09
2023-04-29T11:33:13.639Z,1019.10
2023-04-29T11:34:13.517Z,1019.12
2023-04-29T11:35:13.452Z,1019.11
2023-04-29T11:36:14.919Z,1019.11
2023-04-29T11:37:12.969Z,1019.12
2023-04-29T11:38:12.940Z,1019.14
2023-04-29T11:39:12.958Z,1019.17
2023-04-29T11:40:13.278Z,1019.19
2023-04-29T11:41:13.261Z,1019.18
2023-04-29T11:42:13.220Z,1019.20
2023-04-29T11:43:13.328Z,1019.19
2023-04-29T11:44:13.710Z,1019.17
2023-04-29T11:45:13.908Z,1019.18
2023-04-29T11:46:13.055Z,1019.15
2023-04-29T11:47:13.208Z,1019.19
2023-04-29T11:48:13.493Z,1019.18
2023-04-29T11:49:13.697Z,1019.19
2023-04-29T11:50:13.923Z,1019.22
2023-04-29T11:51:13.108Z,1019.17
2023-04-29T11:52:13.069Z,1019.23
2023-04-29T11:53:13.135Z,1019.17
2023-04-29T11:54:13.482Z,1019.20
2023-04-29T11:55:13.563Z,1019.22
2023-04-29T11:56:13.667Z,1019.26
2023-04-29T11:57:13.572Z,1019.25
2023-04-29T11:58:13.749Z,1019.25
2023-04-29T11:59:13.910Z,1019.27
2023-04-29T12:00:13.128Z,1019.27
2023-04-29T12:01:13.154Z,1019.28
2023-04-29T12:02:13.176Z,1019.29
2023-04-29T12:03:13.449Z,1019.27
2023-04-29T12:04:14.066Z,1019.26
2023-04-29T12:05:13.946Z,1019.25
2023-04-29T12:06:13.152Z,1019.24
2023-04-29T12:07:13.062Z,1019.23